KDHN/DHN METAR and TAF weather

Enter ICAO airport designator
Station Type Date Time Source
KDHN METAR 2020/10/20 16:53 UTC NOAA

KDHN 201653Z 06011G15KT 10SM CLR 29/18 A3017 RMK AO2 SLP209 T02890183


Station Type Date Time Source
KDHN Decoded METAR 2020/10/20 16:53 UTC NOAA

DOTHAN AIRPORT, AL, United States (KDHN) 31-19N 085-27W 113M
Oct 20, 2020 - 12:53 PM EDT / 2020.10.20 1653 UTC
Wind: from the ENE (060 degrees) at 13 MPH (11 KT) gusting to 17 MPH (15 KT):0
Visibility: 10 mile(s):0
Sky conditions: clear
Temperature: 84.0 F (28.9 C)
Dew Point: 64.9 F (18.3 C)
Relative Humidity: 52%
Pressure (altimeter): 30.17 in. Hg (1021 hPa)
ob: KDHN 201653Z 06011G15KT 10SM CLR 29/18 A3017 RMK AO2 SLP209 T02890183
cycle: 17

Station Type Date Time Source
KDHN TAF 2020/10/20 12:22 UTC NOAA

TAF KDHN 201120Z 2012/2112 06008KT P6SM BKN025
FM201800 06008KT P6SM SCT050
FM210000 06005KT P6SM BKN250
FM211000 06005KT 5SM BR OVC020

Example: see airport list